Terminal Aerodrome Forecast
Issued by NWS

Home | Current Version | Previous Version | Text Only | Print | Product List | Glossary On
Versions: 1 2 3 4 5 6 7 8 9 10 11 12 13 14 15 16 17 18 19 20 21 22 23 24 25 26 27 28 29 30 31 32
000
FTUS42 KCAE 171621 AAC
TAFCUB
TAF AMD
KCUB 171621Z 1716/1812 23006KT P6SM SCT040
      TEMPO 1716/1719 VRB15G30KT 3SM -TSRA BKN040CB
     FM180000 VRB03KT P6SM SCT150=

USA.gov is the U.S. government's official web portal to all federal, state and local government web resources and services.